createdAt,value
2019-04-25T00:02:40.798Z,99037.02
2019-04-25T00:05:44.765Z,99037.54
2019-04-25T00:08:47.585Z,99037.84
2019-04-25T00:11:51.995Z,99040.64
2019-04-25T00:14:55.364Z,99040.72
2019-04-25T00:17:58.251Z,99048.47
2019-04-25T00:21:08.805Z,99039.08
2019-04-25T00:24:29.701Z,99034.11
2019-04-25T00:27:33.093Z,99040.41
2019-04-25T00:30:36.055Z,99037.24
2019-04-25T00:33:39.026Z,99039.11
2019-04-25T00:36:43.478Z,99037.98
2019-04-25T00:39:47.412Z,99040.68
2019-04-25T00:42:52.223Z,99017.08
2019-04-25T00:45:55.330Z,99019.83
2019-04-25T00:48:58.985Z,99013.23
2019-04-25T00:52:02.121Z,98999.31
2019-04-25T00:55:05.134Z,98996.63
2019-04-25T00:58:14.163Z,98991.65
2019-04-25T01:01:45.597Z,98987.61
2019-04-25T01:04:48.106Z,98992.12
2019-04-25T01:07:52.444Z,98997.56
2019-04-25T01:10:56.406Z,99006.23
2019-04-25T01:13:59.761Z,99003.02
2019-04-25T01:17:02.601Z,98998.08
2019-04-25T01:20:06.269Z,99007.48
2019-04-25T01:23:09.173Z,99011.48
2019-04-25T01:26:13.256Z,99013.55
2019-04-25T01:29:16.579Z,99016.27
2019-04-25T01:32:27.259Z,99022.69
2019-04-25T01:35:47.376Z,99026.73
2019-04-25T01:39:01.654Z,99029.27
2019-04-25T01:42:24.859Z,99033.31
2019-04-25T01:45:30.204Z,99034.64
2019-04-25T01:48:33.429Z,99050.91
2019-04-25T01:51:36.651Z,99058.48
2019-04-25T01:54:39.517Z,99073.13
2019-04-25T01:57:43.724Z,99064.01
2019-04-25T02:00:49.041Z,99073.62
2019-04-25T02:03:53.525Z,99063.23
2019-04-25T02:06:57.029Z,99064.98
2019-04-25T02:10:00.137Z,99062.92
2019-04-25T02:13:05.964Z,99065.53
2019-04-25T02:16:09.336Z,99069.14
2019-04-25T02:19:12.189Z,99070.73
2019-04-25T02:22:15.762Z,99064.20
2019-04-25T02:25:18.961Z,99057.96
2019-04-25T02:28:23.707Z,99053.66
2019-04-25T02:31:27.553Z,99050.65
2019-04-25T02:34:30.397Z,99059.98
2019-04-25T02:37:35.194Z,99046.89
2019-04-25T02:40:38.026Z,99048.42
2019-04-25T02:43:40.908Z,99058.48
2019-04-25T02:47:09.162Z,99066.70
2019-04-25T02:50:28.577Z,99062.94
2019-04-25T02:53:36.523Z,99049.08
2019-04-25T02:56:39.213Z,99057.86
2019-04-25T02:59:42.160Z,99056.59
2019-04-25T03:02:45.040Z,99060.86
2019-04-25T03:05:48.723Z,99053.59
2019-04-25T03:08:54.043Z,99065.31
2019-04-25T03:11:58.221Z,99058.38
2019-04-25T03:15:02.077Z,99067.59
2019-04-25T03:18:11.046Z,99078.42
2019-04-25T03:21:18.554Z,99079.76
2019-04-25T03:24:21.720Z,99082.38
2019-04-25T03:27:25.317Z,99091.97
2019-04-25T03:30:28.804Z,99097.47
2019-04-25T03:33:31.700Z,99087.55
2019-04-25T03:36:34.572Z,99099.16
2019-04-25T03:39:37.776Z,99102.84
2019-04-25T03:42:40.652Z,99091.87
2019-04-25T03:45:45.269Z,99092.66
2019-04-25T03:48:49.721Z,99089.76
2019-04-25T03:51:53.817Z,99097.09
2019-04-25T03:54:56.900Z,99099.39
2019-04-25T03:57:59.968Z,99098.70
2019-04-25T04:01:05.952Z,99103.42
2019-04-25T04:04:09.063Z,99099.02
2019-04-25T04:07:12.730Z,99117.87
2019-04-25T04:10:17.076Z,99119.38
2019-04-25T04:13:20.424Z,99113.78
2019-04-25T04:16:27.078Z,99107.44
2019-04-25T04:19:33.968Z,99116.36
2019-04-25T04:22:40.629Z,99116.80
2019-04-25T04:25:43.497Z,99111.53
2019-04-25T04:28:46.769Z,99111.20
2019-04-25T04:31:49.622Z,99111.11
2019-04-25T04:34:53.674Z,99115.39
2019-04-25T04:37:56.804Z,99121.08
2019-04-25T04:40:59.988Z,99117.77
2019-04-25T04:44:04.169Z,99113.70
2019-04-25T04:47:08.466Z,99114.35
2019-04-25T04:50:12.823Z,99115.36
2019-04-25T04:53:17.196Z,99110.46
2019-04-25T04:56:20.198Z,99106.44
2019-04-25T04:59:24.822Z,99109.66
2019-04-25T05:02:53.404Z,99109.64
2019-04-25T05:06:04.128Z,99117.34
2019-04-25T05:09:29.341Z,99117.02
2019-04-25T05:12:33.958Z,99115.68
2019-04-25T05:15:37.255Z,99112.94
2019-04-25T05:18:40.869Z,99117.77
2019-04-25T05:21:45.637Z,99117.55
2019-04-25T05:24:49.017Z,99116.17
2019-04-25T05:28:00.712Z,99113.73
2019-04-25T05:31:15.405Z,99132.66
2019-04-25T05:34:18.311Z,99133.06
2019-04-25T05:37:21.875Z,99138.78
2019-04-25T05:40:26.334Z,99130.16
2019-04-25T05:43:29.249Z,99141.05
2019-04-25T05:46:32.111Z,99139.78
2019-04-25T05:49:35.267Z,99147.54
2019-04-25T05:52:38.505Z,99153.56
2019-04-25T05:55:41.408Z,99131.87
2019-04-25T05:58:44.264Z,99132.73
2019-04-25T06:01:47.453Z,99141.41
2019-04-25T06:04:50.312Z,99137.16
2019-04-25T06:07:54.405Z,99143.59
2019-04-25T06:11:04.466Z,99154.21
2019-04-25T06:14:09.421Z,99150.56
2019-04-25T06:17:15.771Z,99153.70
2019-04-25T06:20:20.104Z,99146.70
2019-04-25T06:23:45.771Z,99152.05
2019-04-25T06:27:15.616Z,99162.45
2019-04-25T06:30:25.971Z,99157.02
2019-04-25T06:33:29.711Z,99168.48
2019-04-25T06:36:35.208Z,99175.21
2019-04-25T06:39:37.796Z,99170.48
2019-04-25T06:42:40.661Z,99170.67
2019-04-25T06:46:03.857Z,99180.96
2019-04-25T06:49:15.102Z,99170.87
2019-04-25T06:52:18.320Z,99174.34
2019-04-25T06:55:22.865Z,99183.88
2019-04-25T06:58:27.568Z,99174.88
2019-04-25T07:01:31.557Z,99190.62
2019-04-25T07:04:34.874Z,99177.73
2019-04-25T07:07:37.927Z,99177.55
2019-04-25T07:10:41.149Z,99169.16
2019-04-25T07:13:44.039Z,99185.87
2019-04-25T07:16:46.892Z,99187.48
2019-04-25T07:19:50.140Z,99183.53
2019-04-25T07:22:53.769Z,99190.17
2019-04-25T07:26:09.554Z,99203.23
2019-04-25T07:29:34.333Z,99204.58
2019-04-25T07:32:44.777Z,99211.26
2019-04-25T07:35:48.904Z,99217.73
2019-04-25T07:39:05.482Z,99226.12
2019-04-25T07:41:57.074Z,99229.80
2019-04-25T07:45:00.397Z,99227.39
2019-04-25T07:48:04.137Z,99248.98
2019-04-25T07:51:07.342Z,99227.36
2019-04-25T07:54:10.206Z,99241.68
2019-04-25T07:57:14.190Z,99217.81
2019-04-25T08:00:17.933Z,99234.73
2019-04-25T08:03:21.109Z,99233.36
2019-04-25T08:06:24.269Z,99233.69
2019-04-25T08:09:28.268Z,99221.59
2019-04-25T08:12:32.528Z,99243.67
2019-04-25T08:15:46.201Z,99244.48
2019-04-25T08:18:49.861Z,99237.70
2019-04-25T08:21:54.790Z,99259.26
2019-04-25T08:24:57.661Z,99244.66
2019-04-25T08:28:00.668Z,99258.12
2019-04-25T08:31:03.806Z,99266.84
2019-04-25T08:34:06.693Z,99248.78
2019-04-25T08:37:18.060Z,99253.22
2019-04-25T08:40:17.172Z,99251.30
2019-04-25T08:43:20.256Z,99258.60
2019-04-25T08:46:25.256Z,99258.95
2019-04-25T08:49:50.884Z,99271.01
2019-04-25T08:52:54.389Z,99278.70
2019-04-25T08:56:05.975Z,99255.19
2019-04-25T08:59:36.003Z,99262.45
2019-04-25T09:02:52.099Z,99262.09
2019-04-25T09:05:56.951Z,99266.22
2019-04-25T09:08:59.938Z,99272.27
2019-04-25T09:12:04.178Z,99262.33
2019-04-25T09:15:07.870Z,99274.27
2019-04-25T09:18:10.728Z,99275.64
2019-04-25T09:21:13.824Z,99281.91
2019-04-25T09:24:16.811Z,99269.39
2019-04-25T09:27:20.457Z,99271.50
2019-04-25T09:30:24.101Z,99261.27
2019-04-25T09:33:27.096Z,99264.44
2019-04-25T09:36:29.969Z,99273.84
2019-04-25T09:39:48.445Z,99275.58
2019-04-25T09:42:51.300Z,99267.03
2019-04-25T09:46:08.599Z,99255.68
2019-04-25T09:49:17.902Z,99238.67
2019-04-25T09:52:22.190Z,99254.58
2019-04-25T09:55:31.299Z,99260.33
2019-04-25T09:58:37.959Z,99260.63
2019-04-25T10:01:43.968Z,99260.93
2019-04-25T10:04:48.267Z,99268.38
2019-04-25T10:07:51.148Z,99264.86
2019-04-25T10:10:55.462Z,99256.84
2019-04-25T10:14:26.934Z,99267.98
2019-04-25T10:17:29.804Z,99262.37
2019-04-25T10:20:33.357Z,99248.50
2019-04-25T10:23:37.440Z,99252.06
2019-04-25T10:26:41.648Z,99252.66
2019-04-25T10:29:52.773Z,99263.69
2019-04-25T10:32:50.630Z,99251.56
2019-04-25T10:35:59.454Z,99259.81
2019-04-25T10:39:07.268Z,99260.30
2019-04-25T10:42:03.857Z,99262.14
2019-04-25T10:45:20.252Z,99263.28
2019-04-25T10:48:13.873Z,99243.03
2019-04-25T10:51:17.072Z,99252.85
2019-04-25T10:54:20.992Z,99251.50
2019-04-25T10:57:26.313Z,99254.94
2019-04-25T11:00:35.266Z,99249.47
2019-04-25T11:04:07.793Z,99237.61
2019-04-25T11:07:10.748Z,99229.94
2019-04-25T11:10:14.157Z,99233.33
2019-04-25T11:13:17.159Z,99225.67
2019-04-25T11:16:20.030Z,99232.45
2019-04-25T11:19:23.880Z,99229.22
2019-04-25T11:22:27.196Z,99226.16
2019-04-25T11:25:30.379Z,99231.25
2019-04-25T11:28:34.060Z,99220.95
2019-04-25T11:31:46.999Z,99222.20
2019-04-25T11:34:50.752Z,99221.88
2019-04-25T11:37:56.870Z,99221.42
2019-04-25T11:41:08.235Z,99224.58
2019-04-25T11:44:11.108Z,99215.20
2019-04-25T11:47:15.383Z,99228.00
2019-04-25T11:50:18.746Z,99248.22
2019-04-25T11:53:24.790Z,99242.57
2019-04-25T11:56:27.038Z,99241.23
2019-04-25T11:59:29.897Z,99225.75
2019-04-25T12:02:34.319Z,99228.77
2019-04-25T12:05:37.712Z,99231.50
2019-04-25T12:08:40.572Z,99239.45
2019-04-25T12:11:45.817Z,99217.88
2019-04-25T12:14:49.566Z,99211.61
2019-04-25T12:17:54.535Z,99212.50
2019-04-25T12:20:58.165Z,99206.38
2019-04-25T12:24:03.696Z,99192.95
2019-04-25T12:27:06.190Z,99181.80
2019-04-25T12:30:09.366Z,99170.25
2019-04-25T12:33:20.340Z,99166.23
2019-04-25T12:36:17.031Z,99153.13
2019-04-25T12:39:20.005Z,99140.16
2019-04-25T12:42:24.216Z,99123.36
2019-04-25T12:45:39.714Z,99134.74
2019-04-25T12:48:43.704Z,99145.13
2019-04-25T12:51:46.570Z,99149.88
2019-04-25T12:54:49.794Z,99151.69
2019-04-25T12:57:54.875Z,99148.13
2019-04-25T13:00:59.920Z,99144.97
2019-04-25T13:04:04.143Z,99155.20
2019-04-25T13:07:08.874Z,99155.95
2019-04-25T13:10:13.140Z,99157.58
2019-04-25T13:13:17.593Z,99161.67
2019-04-25T13:16:20.648Z,99157.51
2019-04-25T13:19:26.035Z,99154.22
2019-04-25T13:22:28.743Z,99169.84
2019-04-25T13:25:31.629Z,99174.53
2019-04-25T13:28:48.925Z,99172.28
2019-04-25T13:32:13.298Z,99162.41
2019-04-25T13:35:23.945Z,99144.34
2019-04-25T13:38:26.914Z,99151.27
2019-04-25T13:41:29.828Z,99161.95
2019-04-25T13:44:34.182Z,99151.88
2019-04-25T13:47:37.787Z,99140.10
2019-04-25T13:50:40.794Z,99144.11
2019-04-25T13:53:43.676Z,99128.92
2019-04-25T13:56:46.573Z,99130.70
2019-04-25T13:59:49.483Z,99132.58
2019-04-25T14:02:52.667Z,99131.97
2019-04-25T14:05:55.542Z,99133.63
2019-04-25T14:08:58.435Z,99126.00
2019-04-25T14:12:01.632Z,99115.38
2019-04-25T14:15:08.598Z,99107.11
2019-04-25T14:18:20.564Z,99111.94
2019-04-25T14:21:24.893Z,99099.48
2019-04-25T14:24:30.682Z,99098.83
2019-04-25T14:27:34.031Z,99083.82
2019-04-25T14:30:37.582Z,99083.98
2019-04-25T14:33:40.887Z,99066.48
2019-04-25T14:36:44.311Z,99076.63
2019-04-25T14:39:47.698Z,99064.72
2019-04-25T14:42:51.675Z,99062.70
2019-04-25T14:45:56.186Z,99065.19
2019-04-25T14:48:59.387Z,99068.80
2019-04-25T14:52:02.264Z,99066.45
2019-04-25T14:55:27.402Z,99060.73
2019-04-25T14:58:31.279Z,99060.55
2019-04-25T15:01:44.526Z,99057.39
2019-04-25T15:04:38.930Z,99058.78
2019-04-25T15:07:43.006Z,99056.12
2019-04-25T15:10:48.345Z,99068.30
2019-04-25T15:13:51.084Z,99075.27
2019-04-25T15:16:54.364Z,99073.97
2019-04-25T15:19:58.190Z,99071.28
2019-04-25T15:23:01.080Z,99069.37
2019-04-25T15:26:03.986Z,99070.14
2019-04-25T15:29:07.160Z,99077.59
2019-04-25T15:32:13.328Z,99078.42
2019-04-25T15:35:18.138Z,99077.63
2019-04-25T15:38:31.384Z,99084.34
2019-04-25T15:41:43.528Z,99086.05
2019-04-25T15:45:06.965Z,99085.32
2019-04-25T15:48:09.848Z,99083.88
2019-04-25T15:51:13.123Z,99076.50
2019-04-25T15:54:16.014Z,99074.71
2019-04-25T15:57:18.897Z,99071.89
2019-04-25T16:00:30.650Z,99076.70
2019-04-25T16:03:33.614Z,99072.75
2019-04-25T16:06:36.838Z,99061.21
2019-04-25T16:09:40.177Z,99046.95
2019-04-25T16:12:43.077Z,99055.52
2019-04-25T16:15:46.052Z,99064.05
2019-04-25T16:18:48.927Z,99070.77
2019-04-25T16:21:52.112Z,99062.44
2019-04-25T16:24:55.078Z,99061.13
2019-04-25T16:27:58.706Z,99059.39
2019-04-25T16:31:04.261Z,99059.27
2019-04-25T16:34:06.995Z,99058.45
2019-04-25T16:37:09.826Z,99067.59
2019-04-25T16:40:14.534Z,99059.30
2019-04-25T16:43:21.918Z,99069.07
2019-04-25T16:46:26.068Z,99064.80
2019-04-25T16:49:29.999Z,99064.58
2019-04-25T16:52:33.834Z,99067.36
2019-04-25T16:55:36.791Z,99060.75
2019-04-25T16:58:39.659Z,99059.78
2019-04-25T17:01:42.810Z,99062.61
2019-04-25T17:04:45.807Z,99067.66
2019-04-25T17:07:48.692Z,99059.10
2019-04-25T17:10:51.874Z,99065.30
2019-04-25T17:14:14.345Z,99058.58
2019-04-25T17:17:29.167Z,99062.14
2019-04-25T17:20:35.604Z,99069.50
2019-04-25T17:23:39.657Z,99076.93
2019-04-25T17:26:42.561Z,99087.34
2019-04-25T17:29:46.213Z,99101.13
2019-04-25T17:33:11.474Z,99112.74
2019-04-25T17:36:23.334Z,99116.55
2019-04-25T17:39:45.806Z,99131.06
2019-04-25T17:42:48.688Z,99135.58
2019-04-25T17:45:51.583Z,99134.01
2019-04-25T17:48:54.478Z,99134.23
2019-04-25T17:51:57.716Z,99135.88
2019-04-25T17:55:01.226Z,99158.22
2019-04-25T17:58:04.093Z,99172.54
2019-04-25T18:01:08.465Z,99177.70
2019-04-25T18:04:11.338Z,99169.69
2019-04-25T18:07:14.567Z,99177.53
2019-04-25T18:10:17.862Z,99166.96
2019-04-25T18:13:21.380Z,99166.28
2019-04-25T18:16:30.052Z,99165.63
2019-04-25T18:19:40.562Z,99178.75
2019-04-25T18:23:12.289Z,99186.80
2019-04-25T18:26:21.829Z,99173.41
2019-04-25T18:29:24.738Z,99184.63
2019-04-25T18:32:31.956Z,99193.20
2019-04-25T18:35:39.157Z,99201.15
2019-04-25T18:39:11.980Z,99224.59
2019-04-25T18:42:44.556Z,99222.20
2019-04-25T18:45:51.908Z,99219.38
2019-04-25T18:48:55.116Z,99225.13
2019-04-25T18:52:04.075Z,99248.16
2019-04-25T18:55:14.512Z,99249.69
2019-04-25T18:58:39.848Z,99267.70
2019-04-25T19:01:53.741Z,99273.72
2019-04-25T19:05:20.285Z,99285.84
2019-04-25T19:08:23.178Z,99300.50
2019-04-25T19:11:26.213Z,99304.03
2019-04-25T19:14:29.098Z,99307.23
2019-04-25T19:17:31.990Z,99303.78
2019-04-25T19:20:35.377Z,99309.05
2019-04-25T19:23:39.398Z,99314.09
2019-04-25T19:26:44.660Z,99315.66
2019-04-25T19:29:47.851Z,99317.75
2019-04-25T19:32:51.587Z,99329.02
2019-04-25T19:35:54.968Z,99335.66
2019-04-25T19:38:58.681Z,99336.39
2019-04-25T19:42:20.550Z,99345.89
2019-04-25T19:45:23.488Z,99343.34
2019-04-25T19:48:28.229Z,99361.53
2019-04-25T19:51:31.099Z,99364.30
2019-04-25T19:54:34.440Z,99369.56
2019-04-25T19:57:37.314Z,99396.53
2019-04-25T20:00:40.384Z,99394.69
2019-04-25T20:04:00.049Z,99402.98
2019-04-25T20:07:37.610Z,99399.89
2019-04-25T20:10:48.967Z,99390.42
2019-04-25T20:13:53.411Z,99407.95
2019-04-25T20:16:56.340Z,99404.48
2019-04-25T20:19:59.236Z,99399.22
2019-04-25T20:23:02.136Z,99398.94
2019-04-25T20:26:05.350Z,99399.86
2019-04-25T20:29:08.571Z,99391.57
2019-04-25T20:32:11.444Z,99388.50
2019-04-25T20:35:14.754Z,99386.88
2019-04-25T20:38:18.015Z,99376.99
2019-04-25T20:41:21.191Z,99388.59
2019-04-25T20:44:24.469Z,99389.37
2019-04-25T20:47:28.766Z,99394.58
2019-04-25T20:50:32.039Z,99387.83
2019-04-25T20:53:35.498Z,99385.56
2019-04-25T20:56:38.646Z,99379.30
2019-04-25T20:59:41.595Z,99395.30
2019-04-25T21:02:44.548Z,99392.15
2019-04-25T21:05:50.960Z,99389.65
2019-04-25T21:08:53.933Z,99400.18
2019-04-25T21:11:58.081Z,99399.23
2019-04-25T21:15:15.422Z,99407.91
2019-04-25T21:18:32.593Z,99412.06
2019-04-25T21:21:36.563Z,99405.85
2019-04-25T21:24:39.451Z,99397.36
2019-04-25T21:27:42.321Z,99393.67
2019-04-25T21:30:45.192Z,99389.73
2019-04-25T21:33:48.099Z,99387.96
2019-04-25T21:36:53.268Z,99391.86
2019-04-25T21:40:18.905Z,99398.06
2019-04-25T21:43:24.552Z,99400.52
2019-04-25T21:46:27.798Z,99392.45
2019-04-25T21:49:30.974Z,99389.86
2019-04-25T21:52:33.836Z,99385.95
2019-04-25T21:55:37.011Z,99404.25
2019-04-25T21:58:40.207Z,99409.83
2019-04-25T22:01:43.807Z,99404.47
2019-04-25T22:04:47.310Z,99396.09
2019-04-25T22:07:50.582Z,99393.16
2019-04-25T22:10:55.793Z,99393.84
2019-04-25T22:13:59.532Z,99403.11
2019-04-25T22:17:03.893Z,99412.45
2019-04-25T22:20:07.325Z,99424.34
2019-04-25T22:23:10.468Z,99440.80
2019-04-25T22:26:13.760Z,99437.95
2019-04-25T22:29:17.240Z,99442.94
2019-04-25T22:32:30.138Z,99443.07
2019-04-25T22:35:38.812Z,99451.82
2019-04-25T22:38:41.992Z,99449.34
2019-04-25T22:41:46.851Z,99447.42
2019-04-25T22:44:49.772Z,99446.17
2019-04-25T22:47:53.045Z,99443.19
2019-04-25T22:50:56.107Z,99450.50
2019-04-25T22:53:58.976Z,99444.25
2019-04-25T22:57:02.642Z,99439.80
2019-04-25T23:00:09.306Z,99435.17
2019-04-25T23:03:24.976Z,99426.69
2019-04-25T23:06:28.194Z,99428.25
2019-04-25T23:09:33.415Z,99428.56
2019-04-25T23:12:37.009Z,99440.92
2019-04-25T23:15:40.262Z,99427.16
2019-04-25T23:18:43.434Z,99418.77
2019-04-25T23:21:46.689Z,99422.40
2019-04-25T23:24:57.997Z,99409.42
2019-04-25T23:28:17.414Z,99417.92
2019-04-25T23:31:25.066Z,99434.64
2019-04-25T23:34:28.770Z,99423.57
2019-04-25T23:37:31.971Z,99407.63
2019-04-25T23:40:35.185Z,99405.34
2019-04-25T23:43:38.724Z,99401.33
2019-04-25T23:46:41.888Z,99391.27
2019-04-25T23:49:45.085Z,99390.48
2019-04-25T23:52:49.002Z,99380.90
2019-04-25T23:55:53.652Z,99386.14
2019-04-25T23:58:56.612Z,99373.97
